createdAt,value
2018-02-19T00:00:39.164Z,16.30
2018-02-19T00:03:07.324Z,18.67
2018-02-19T00:05:35.990Z,19.30
2018-02-19T00:08:05.553Z,23.83
2018-02-19T00:10:33.736Z,23.97
2018-02-19T00:13:01.914Z,24.37
2018-02-19T00:15:30.051Z,25.07
2018-02-19T00:17:58.287Z,27.70
2018-02-19T00:20:26.453Z,28.03
2018-02-19T00:22:54.683Z,26.83
2018-02-19T00:25:22.849Z,25.73
2018-02-19T00:27:51.051Z,29.13
2018-02-19T00:30:19.229Z,28.13
2018-02-19T00:32:47.378Z,29.50
2018-02-19T00:35:15.617Z,31.17
2018-02-19T00:37:44.562Z,34.83
2018-02-19T00:40:13.141Z,37.03
2018-02-19T00:42:41.294Z,35.23
2018-02-19T00:45:09.463Z,35.87
2018-02-19T00:47:37.615Z,39.30
2018-02-19T00:50:06.505Z,41.07
2018-02-19T00:52:35.497Z,38.83
2018-02-19T00:55:03.863Z,41.23
2018-02-19T00:57:32.035Z,41.10
2018-02-19T01:00:00.286Z,42.20
2018-02-19T01:02:28.530Z,41.93
2018-02-19T01:04:56.699Z,40.90
2018-02-19T01:07:25.009Z,41.60
2018-02-19T01:09:53.214Z,41.87
2018-02-19T01:12:21.420Z,39.60
2018-02-19T01:14:50.338Z,37.70
2018-02-19T01:17:19.254Z,38.07
2018-02-19T01:19:47.380Z,39.93
2018-02-19T01:22:16.298Z,37.83
2018-02-19T01:24:44.516Z,36.73
2018-02-19T01:27:12.664Z,38.10
2018-02-19T01:29:40.834Z,38.27
2018-02-19T01:32:08.953Z,35.23
2018-02-19T01:34:37.178Z,35.03
2018-02-19T01:37:09.371Z,33.63
2018-02-19T01:39:37.517Z,34.53
2018-02-19T01:42:05.659Z,32.63
2018-02-19T01:44:34.573Z,32.87
2018-02-19T01:47:02.723Z,32.40
2018-02-19T01:49:31.627Z,29.20
2018-02-19T01:51:59.768Z,28.40
2018-02-19T01:54:27.895Z,27.47
2018-02-19T01:56:56.066Z,25.93
2018-02-19T01:59:24.204Z,24.93
2018-02-19T02:01:53.085Z,23.00
2018-02-19T02:04:21.229Z,21.47
2018-02-19T02:06:49.381Z,22.77
2018-02-19T02:09:18.274Z,21.87
2018-02-19T02:11:46.613Z,22.37
2018-02-19T02:14:15.533Z,21.87
2018-02-19T02:16:43.723Z,20.10
2018-02-19T02:19:11.996Z,18.50
2018-02-19T02:21:40.162Z,19.57
2018-02-19T02:24:08.315Z,18.13
2018-02-19T02:26:37.226Z,18.37
2018-02-19T02:29:05.353Z,17.97
2018-02-19T02:31:33.699Z,15.40
2018-02-19T02:34:01.854Z,17.30
2018-02-19T02:36:29.975Z,14.50
2018-02-19T02:38:58.970Z,16.20
2018-02-19T02:41:27.142Z,15.87
2018-02-19T02:43:55.352Z,14.57
2018-02-19T02:46:24.267Z,14.40
2018-02-19T02:48:52.410Z,15.10
2018-02-19T02:51:21.333Z,15.23
2018-02-19T02:53:49.528Z,14.50
2018-02-19T02:56:17.671Z,15.10
2018-02-19T02:58:45.854Z,14.57
2018-02-19T03:01:13.999Z,14.67
2018-02-19T03:03:42.897Z,15.27
2018-02-19T03:06:11.790Z,16.77
2018-02-19T03:08:39.932Z,14.23
2018-02-19T03:11:08.157Z,14.00
2018-02-19T03:13:36.407Z,16.20
2018-02-19T03:16:05.289Z,15.77
2018-02-19T03:18:34.223Z,15.57
2018-02-19T03:21:02.356Z,16.50
2018-02-19T03:23:31.315Z,14.80
2018-02-19T03:25:59.526Z,16.30
2018-02-19T03:28:28.420Z,15.00
2018-02-19T03:30:57.322Z,15.93
2018-02-19T03:33:26.364Z,15.30
2018-02-19T03:35:54.531Z,14.17
2018-02-19T03:38:22.681Z,14.40
2018-02-19T03:40:50.811Z,15.57
2018-02-19T03:43:19.325Z,14.30
2018-02-19T03:45:47.444Z,14.33
2018-02-19T03:48:15.606Z,14.57
2018-02-19T03:50:43.757Z,13.67
2018-02-19T03:53:12.695Z,13.40
2018-02-19T03:55:40.862Z,14.60
2018-02-19T03:58:09.816Z,14.50
2018-02-19T04:00:37.994Z,13.87
2018-02-19T04:03:06.185Z,15.47
2018-02-19T04:05:34.396Z,12.93
2018-02-19T04:08:02.653Z,12.47
2018-02-19T04:10:30.854Z,13.67
2018-02-19T04:12:59.136Z,13.27
2018-02-19T04:15:28.100Z,12.70
2018-02-19T04:17:57.348Z,14.17
2018-02-19T04:20:25.480Z,14.97
2018-02-19T04:22:53.637Z,14.67
2018-02-19T04:25:21.771Z,13.90
2018-02-19T04:27:49.927Z,12.87
2018-02-19T04:30:18.838Z,13.13
2018-02-19T04:32:47.005Z,11.80
2018-02-19T04:35:15.939Z,12.43
2018-02-19T04:37:44.145Z,10.93
2018-02-19T04:40:13.095Z,10.97
2018-02-19T04:42:41.221Z,11.60
2018-02-19T04:45:15.983Z,12.30
2018-02-19T04:47:44.127Z,12.73
2018-02-19T04:50:13.043Z,12.03
2018-02-19T04:52:41.175Z,11.70
2018-02-19T04:55:09.318Z,12.67
2018-02-19T04:57:37.490Z,11.00
2018-02-19T05:00:05.633Z,13.10
2018-02-19T05:02:33.914Z,11.53
2018-02-19T05:05:02.910Z,10.90
2018-02-19T05:07:31.058Z,11.90
2018-02-19T05:09:59.957Z,11.43
2018-02-19T05:12:29.337Z,11.90
2018-02-19T05:14:57.476Z,12.70
2018-02-19T05:17:25.651Z,12.90
2018-02-19T05:19:53.790Z,11.90
2018-02-19T05:22:22.726Z,14.60
2018-02-19T05:24:50.873Z,15.43
2018-02-19T05:27:19.048Z,16.07
2018-02-19T05:29:47.210Z,14.33
2018-02-19T05:32:15.340Z,15.20
2018-02-19T05:34:43.496Z,13.60
2018-02-19T05:37:11.617Z,14.17
2018-02-19T05:39:40.509Z,14.73
2018-02-19T05:42:09.396Z,14.33
2018-02-19T05:44:38.352Z,16.23
2018-02-19T05:47:06.498Z,14.10
2018-02-19T05:49:34.805Z,12.73
2018-02-19T05:52:02.936Z,13.53
2018-02-19T05:54:31.049Z,12.73
2018-02-19T05:56:59.170Z,12.20
2018-02-19T05:59:28.092Z,14.03
2018-02-19T06:01:56.243Z,13.77
2018-02-19T06:04:24.491Z,12.33
2018-02-19T06:06:53.433Z,13.17
2018-02-19T06:09:21.597Z,13.17
2018-02-19T06:11:49.759Z,13.97
2018-02-19T06:14:17.911Z,11.77
2018-02-19T06:16:46.813Z,11.37
2018-02-19T06:19:15.907Z,13.73
2018-02-19T06:21:44.865Z,13.87
2018-02-19T06:24:13.019Z,13.47
2018-02-19T06:26:41.175Z,13.47
2018-02-19T06:29:09.668Z,11.73
2018-02-19T06:31:37.809Z,13.80
2018-02-19T06:34:06.831Z,13.47
2018-02-19T06:36:35.250Z,12.87
2018-02-19T06:39:03.386Z,13.47
2018-02-19T06:41:31.642Z,15.00
2018-02-19T06:43:59.828Z,13.17
2018-02-19T06:46:28.005Z,14.00
2018-02-19T06:48:56.249Z,14.47
2018-02-19T06:51:25.212Z,12.83
2018-02-19T06:53:54.260Z,14.43
2018-02-19T06:56:22.484Z,14.17
2018-02-19T06:58:53.038Z,15.03
2018-02-19T07:01:30.223Z,13.83
2018-02-19T07:04:06.006Z,15.03
2018-02-19T07:06:34.661Z,14.83
2018-02-19T07:09:03.588Z,14.57
2018-02-19T07:11:31.737Z,14.63
2018-02-19T07:14:00.765Z,15.67
2018-02-19T07:16:28.924Z,16.03
2018-02-19T07:18:57.828Z,14.37
2018-02-19T07:21:25.995Z,15.40
2018-02-19T07:23:54.165Z,17.47
2018-02-19T07:26:22.395Z,15.73
2018-02-19T07:28:50.600Z,15.67
2018-02-19T07:31:19.557Z,15.67
2018-02-19T07:33:48.397Z,15.87
2018-02-19T07:36:16.651Z,16.30
2018-02-19T07:38:45.560Z,16.47
2018-02-19T07:41:14.978Z,15.90
2018-02-19T07:43:43.123Z,16.90
2018-02-19T07:46:12.121Z,14.77
2018-02-19T07:48:41.005Z,15.23
2018-02-19T07:51:09.889Z,14.77
2018-02-19T07:53:38.792Z,17.40
2018-02-19T07:56:07.668Z,17.63
2018-02-19T07:58:35.795Z,16.87
2018-02-19T08:01:03.908Z,16.60
2018-02-19T08:03:32.034Z,16.10
2018-02-19T08:06:00.180Z,16.33
2018-02-19T08:08:28.315Z,16.03
2018-02-19T08:10:56.440Z,15.77
2018-02-19T08:13:24.577Z,16.77
2018-02-19T08:15:52.754Z,15.20
2018-02-19T08:18:21.674Z,14.73
2018-02-19T08:20:49.829Z,17.10
2018-02-19T08:23:18.708Z,17.13
2018-02-19T08:25:46.840Z,17.53
2018-02-19T08:28:15.038Z,15.10
2018-02-19T08:30:43.242Z,16.80
2018-02-19T08:33:11.372Z,15.53
2018-02-19T08:35:39.513Z,15.37
2018-02-19T08:38:07.632Z,15.50
2018-02-19T08:40:35.758Z,16.30
2018-02-19T08:43:03.975Z,15.13
2018-02-19T08:45:32.114Z,14.23
2018-02-19T08:48:01.063Z,14.00
2018-02-19T08:50:29.184Z,14.60
2018-02-19T08:52:57.308Z,13.17
2018-02-19T08:55:25.441Z,14.07
2018-02-19T08:57:53.574Z,13.97
2018-02-19T09:00:22.534Z,14.30
2018-02-19T09:02:50.654Z,14.07
2018-02-19T09:05:19.163Z,13.87
2018-02-19T09:07:47.311Z,13.77
2018-02-19T09:10:15.579Z,12.90
2018-02-19T09:12:44.483Z,14.20
2018-02-19T09:15:12.602Z,13.13
2018-02-19T09:17:40.730Z,13.30
2018-02-19T09:20:08.866Z,14.73
2018-02-19T09:22:36.994Z,15.87
2018-02-19T09:25:05.191Z,14.83
2018-02-19T09:27:33.319Z,16.20
2018-02-19T09:30:01.573Z,14.93
2018-02-19T09:32:29.750Z,15.73
2018-02-19T09:34:58.671Z,14.67
2018-02-19T09:37:26.816Z,16.27
2018-02-19T09:39:55.061Z,16.30
2018-02-19T09:42:23.223Z,15.37
2018-02-19T09:44:51.366Z,15.53
2018-02-19T09:47:19.492Z,16.03
2018-02-19T09:49:47.626Z,18.90
2018-02-19T09:52:15.770Z,17.53
2018-02-19T09:54:44.678Z,17.43
2018-02-19T09:57:13.578Z,17.83
2018-02-19T09:59:41.710Z,17.70
2018-02-19T10:02:09.884Z,19.10
2018-02-19T10:04:38.226Z,18.60
2018-02-19T10:07:07.139Z,17.80
2018-02-19T10:09:35.292Z,18.13
2018-02-19T10:12:03.447Z,16.90
2018-02-19T10:14:31.597Z,16.77
2018-02-19T10:17:00.835Z,18.23
2018-02-19T10:19:28.940Z,17.53
2018-02-19T10:21:57.047Z,18.60
2018-02-19T10:24:25.281Z,17.80
2018-02-19T10:26:53.418Z,18.13
2018-02-19T10:29:21.571Z,15.90
2018-02-19T10:31:49.713Z,19.00
2018-02-19T10:34:17.889Z,18.70
2018-02-19T10:36:46.030Z,18.80
2018-02-19T10:39:14.166Z,18.73
2018-02-19T10:41:42.343Z,18.57
2018-02-19T10:44:10.482Z,18.47
2018-02-19T10:46:38.660Z,18.73
2018-02-19T10:49:06.968Z,20.63
2018-02-19T10:51:35.167Z,18.30
2018-02-19T10:54:04.564Z,18.57
2018-02-19T10:56:33.342Z,18.73
2018-02-19T10:59:01.460Z,17.90
2018-02-19T11:01:29.585Z,17.23
2018-02-19T11:03:59.092Z,17.73
2018-02-19T11:06:28.010Z,17.90
2018-02-19T11:08:56.186Z,18.67
2018-02-19T11:11:24.318Z,16.67
2018-02-19T11:13:53.220Z,17.57
2018-02-19T11:16:22.101Z,16.90
2018-02-19T11:18:51.010Z,18.30
2018-02-19T11:21:19.134Z,16.60
2018-02-19T11:23:47.254Z,17.43
2018-02-19T11:26:15.457Z,17.93
2018-02-19T11:28:43.607Z,16.70
2018-02-19T11:31:11.730Z,16.23
2018-02-19T11:33:39.997Z,17.20
2018-02-19T11:36:08.173Z,17.80
2018-02-19T11:38:36.301Z,16.70
2018-02-19T11:41:04.439Z,17.00
2018-02-19T11:43:32.651Z,17.90
2018-02-19T11:46:00.850Z,17.73
2018-02-19T11:48:28.971Z,18.80
2018-02-19T11:50:57.919Z,18.77
2018-02-19T11:53:26.521Z,18.80
2018-02-19T11:55:54.702Z,18.07
2018-02-19T11:58:22.842Z,17.33
2018-02-19T12:00:51.510Z,16.33
2018-02-19T12:03:19.714Z,16.27
2018-02-19T12:05:47.896Z,17.23
2018-02-19T12:08:16.308Z,17.20
2018-02-19T12:10:45.265Z,17.87
2018-02-19T12:13:13.418Z,17.13
2018-02-19T12:15:55.750Z,17.67
2018-02-19T12:18:23.907Z,17.17
2018-02-19T12:20:52.136Z,17.67
2018-02-19T12:23:21.090Z,18.50
2018-02-19T12:25:49.249Z,18.43
2018-02-19T12:28:17.372Z,16.50
2018-02-19T12:30:46.718Z,16.57
2018-02-19T12:33:14.846Z,17.10
2018-02-19T12:35:43.782Z,16.87
2018-02-19T12:38:11.954Z,15.93
2018-02-19T12:40:40.090Z,19.07
2018-02-19T12:43:09.158Z,16.83
2018-02-19T12:45:37.440Z,15.57
2018-02-19T12:48:05.720Z,16.17
2018-02-19T12:50:33.994Z,16.43
2018-02-19T12:53:02.225Z,16.70
2018-02-19T12:55:30.453Z,15.90
2018-02-19T12:57:58.695Z,16.93
2018-02-19T13:00:26.948Z,17.13
2018-02-19T13:02:55.047Z,17.07
2018-02-19T13:05:23.324Z,15.27
2018-02-19T13:07:51.453Z,17.23
2018-02-19T13:10:20.357Z,16.90
2018-02-19T13:12:49.271Z,17.43
2018-02-19T13:15:17.433Z,15.23
2018-02-19T13:17:45.611Z,15.33
2018-02-19T13:20:15.209Z,16.60
2018-02-19T13:22:43.643Z,16.63
2018-02-19T13:25:11.893Z,17.23
2018-02-19T13:27:40.012Z,16.60
2018-02-19T13:30:08.156Z,15.27
2018-02-19T13:32:36.301Z,15.80
2018-02-19T13:35:04.718Z,14.63
2018-02-19T13:37:32.860Z,15.67
2018-02-19T13:40:00.981Z,16.57
2018-02-19T13:42:29.150Z,15.47
2018-02-19T13:44:57.318Z,15.30
2018-02-19T13:47:25.509Z,14.53
2018-02-19T13:49:53.590Z,15.60
2018-02-19T13:52:22.475Z,14.93
2018-02-19T13:54:51.422Z,15.70
2018-02-19T13:57:20.311Z,15.73
2018-02-19T13:59:48.430Z,15.57
2018-02-19T14:02:16.630Z,15.50
2018-02-19T14:04:45.143Z,14.57
2018-02-19T14:07:13.291Z,15.33
2018-02-19T14:09:45.799Z,15.63
2018-02-19T14:12:13.931Z,15.10
2018-02-19T14:14:42.823Z,14.33
2018-02-19T14:17:11.727Z,14.83
2018-02-19T14:19:39.849Z,14.80
2018-02-19T14:22:08.007Z,14.00
2018-02-19T14:24:36.136Z,15.60
2018-02-19T14:27:05.091Z,14.63
2018-02-19T14:29:33.280Z,15.57
2018-02-19T14:32:01.363Z,15.30
2018-02-19T14:34:30.296Z,15.17
2018-02-19T14:36:58.451Z,14.67
2018-02-19T14:39:26.621Z,15.43
2018-02-19T14:41:54.789Z,13.97
2018-02-19T14:44:23.796Z,13.90
2018-02-19T14:46:51.998Z,14.50
2018-02-19T14:49:20.143Z,14.70
2018-02-19T14:51:48.278Z,14.17
2018-02-19T14:54:16.402Z,13.77
2018-02-19T14:56:44.586Z,14.27
2018-02-19T14:59:12.712Z,15.40
2018-02-19T15:01:41.618Z,16.87
2018-02-19T15:04:10.533Z,16.80
2018-02-19T15:06:39.068Z,15.27
2018-02-19T15:09:07.990Z,15.77
2018-02-19T15:11:36.121Z,15.40
2018-02-19T15:14:08.230Z,16.37
2018-02-19T15:16:36.351Z,15.43
2018-02-19T15:19:04.542Z,15.60
2018-02-19T15:21:32.674Z,16.73
2018-02-19T15:24:00.782Z,17.47
2018-02-19T15:26:28.958Z,16.67
2018-02-19T15:28:57.133Z,16.20
2018-02-19T15:31:25.258Z,16.87
2018-02-19T15:33:53.445Z,15.97
2018-02-19T15:36:21.583Z,16.90
2018-02-19T15:38:50.497Z,16.90
2018-02-19T15:41:18.647Z,17.53
2018-02-19T15:43:47.557Z,15.93
2018-02-19T15:46:15.721Z,15.70
2018-02-19T15:48:43.848Z,16.53
2018-02-19T15:51:13.333Z,15.93
2018-02-19T15:53:41.461Z,16.37
2018-02-19T15:56:10.346Z,17.43
2018-02-19T15:58:39.251Z,16.73
2018-02-19T16:01:08.864Z,16.50
2018-02-19T16:03:37.728Z,16.93
2018-02-19T16:06:05.882Z,16.07
2018-02-19T16:08:34.005Z,17.30
2018-02-19T16:11:02.125Z,16.07
2018-02-19T16:13:30.311Z,16.83
2018-02-19T16:15:58.415Z,17.03
2018-02-19T16:18:27.280Z,16.97
2018-02-19T16:20:55.497Z,18.07
2018-02-19T16:23:23.692Z,17.47
2018-02-19T16:25:51.837Z,16.23
2018-02-19T16:28:19.982Z,16.93
2018-02-19T16:30:48.108Z,17.73
2018-02-19T16:33:16.265Z,15.83
2018-02-19T16:35:45.108Z,16.27
2018-02-19T16:38:13.237Z,17.27
2018-02-19T16:40:41.520Z,16.50
2018-02-19T16:43:10.447Z,17.57
2018-02-19T16:45:38.591Z,17.67
2018-02-19T16:48:06.755Z,17.63
2018-02-19T16:50:35.349Z,17.70
2018-02-19T16:53:03.484Z,16.30
2018-02-19T16:55:33.155Z,17.17
2018-02-19T16:58:01.280Z,17.77
2018-02-19T17:00:29.426Z,17.50
2018-02-19T17:02:57.682Z,17.73
2018-02-19T17:05:25.828Z,17.73
2018-02-19T17:07:53.981Z,18.37
2018-02-19T17:10:22.111Z,16.87
2018-02-19T17:12:50.296Z,19.00
2018-02-19T17:15:18.568Z,17.73
2018-02-19T17:17:46.714Z,17.97
2018-02-19T17:20:14.853Z,18.10
2018-02-19T17:22:42.961Z,17.60
2018-02-19T17:25:11.087Z,18.53
2018-02-19T17:27:39.972Z,16.87
2018-02-19T17:30:09.723Z,18.83
2018-02-19T17:32:37.859Z,17.43
2018-02-19T17:35:06.754Z,17.83
2018-02-19T17:37:35.237Z,16.53
2018-02-19T17:40:04.292Z,17.87
2018-02-19T17:42:32.565Z,16.87
2018-02-19T17:45:00.735Z,16.27
2018-02-19T17:47:29.059Z,15.93
2018-02-19T17:49:57.941Z,16.57
2018-02-19T17:52:26.189Z,17.87
2018-02-19T17:54:54.329Z,18.37
2018-02-19T17:57:22.524Z,19.30
2018-02-19T17:59:51.668Z,18.60
2018-02-19T18:02:20.574Z,18.40
2018-02-19T18:04:49.477Z,18.20
2018-02-19T18:07:17.658Z,18.10
2018-02-19T18:09:45.851Z,18.17
2018-02-19T18:12:13.980Z,17.60
2018-02-19T18:14:42.136Z,16.87
2018-02-19T18:17:10.577Z,17.73
2018-02-19T18:19:38.804Z,16.90
2018-02-19T18:22:07.671Z,16.70
2018-02-19T18:24:35.890Z,17.90
2018-02-19T18:27:04.850Z,18.63
2018-02-19T18:29:32.993Z,17.37
2018-02-19T18:32:01.136Z,17.67
2018-02-19T18:34:30.053Z,18.23
2018-02-19T18:36:59.037Z,17.83
2018-02-19T18:39:27.187Z,17.83
2018-02-19T18:41:56.212Z,17.97
2018-02-19T18:44:24.491Z,18.87
2018-02-19T18:46:56.678Z,18.63
2018-02-19T18:49:24.908Z,18.10
2018-02-19T18:51:53.823Z,18.30
2018-02-19T18:54:22.008Z,19.73
2018-02-19T18:56:50.157Z,16.80
2018-02-19T18:59:18.314Z,18.80
2018-02-19T19:01:47.326Z,18.00
2018-02-19T19:04:16.279Z,19.57
2018-02-19T19:06:44.460Z,20.20
2018-02-19T19:09:30.709Z,19.57
2018-02-19T19:11:59.096Z,18.50
2018-02-19T19:14:27.270Z,19.77
2018-02-19T19:16:55.439Z,20.97
2018-02-19T19:19:23.764Z,18.93
2018-02-19T19:21:51.949Z,18.97
2018-02-19T19:24:20.143Z,19.77
2018-02-19T19:26:49.200Z,19.73
2018-02-19T19:29:17.318Z,19.57
2018-02-19T19:31:45.498Z,19.70
2018-02-19T19:34:13.642Z,20.57
2018-02-19T19:36:41.773Z,20.27
2018-02-19T19:39:09.892Z,19.03
2018-02-19T19:41:38.035Z,18.60
2018-02-19T19:44:06.244Z,18.07
2018-02-19T19:46:35.141Z,17.53
2018-02-19T19:49:03.421Z,17.93
2018-02-19T19:51:31.614Z,17.07
2018-02-19T19:53:59.798Z,19.03
2018-02-19T19:56:27.940Z,17.97
2018-02-19T19:58:56.971Z,17.97
2018-02-19T20:01:25.621Z,18.93
2018-02-19T20:03:55.477Z,17.73
2018-02-19T20:06:23.590Z,19.07
2018-02-19T20:08:51.728Z,17.73
2018-02-19T20:11:19.886Z,17.40
2018-02-19T20:13:48.019Z,19.30
2018-02-19T20:16:16.192Z,19.23
2018-02-19T20:18:44.326Z,18.20
2018-02-19T20:21:12.465Z,18.10
2018-02-19T20:23:40.611Z,18.23
2018-02-19T20:26:08.768Z,17.53
2018-02-19T20:28:36.903Z,17.63
2018-02-19T20:31:05.075Z,18.80
2018-02-19T20:33:33.199Z,18.23
2018-02-19T20:36:01.400Z,17.80
2018-02-19T20:38:30.348Z,17.70
2018-02-19T20:40:58.555Z,18.17
2018-02-19T20:43:26.687Z,19.60
2018-02-19T20:45:54.872Z,17.27
2018-02-19T20:48:22.998Z,18.73
2018-02-19T20:50:51.158Z,19.77
2018-02-19T20:53:20.304Z,27.77
2018-02-19T20:55:48.416Z,19.20
2018-02-19T20:58:16.572Z,18.30
2018-02-19T21:10:03.967Z,17.10
2018-02-19T21:12:32.112Z,16.63
2018-02-19T21:15:00.265Z,19.13
2018-02-19T21:17:28.386Z,18.37
2018-02-19T21:19:56.547Z,17.80
2018-02-19T21:22:24.692Z,17.90
2018-02-19T21:24:52.833Z,19.07
2018-02-19T21:27:21.824Z,18.13
2018-02-19T21:29:50.865Z,19.30
2018-02-19T21:32:19.082Z,21.00
2018-02-19T21:34:47.248Z,19.43
2018-02-19T21:37:15.431Z,17.90
2018-02-19T21:39:44.361Z,20.03
2018-02-19T21:42:12.599Z,20.73
2018-02-19T21:44:40.782Z,17.87
2018-02-19T21:47:08.902Z,17.00
2018-02-19T21:49:37.121Z,18.80
2018-02-19T21:52:06.124Z,19.97
2018-02-19T21:54:35.078Z,19.57
2018-02-19T21:57:03.308Z,18.90
2018-02-19T21:59:32.232Z,19.83
2018-02-19T22:02:00.405Z,20.37
2018-02-19T22:04:28.660Z,20.87
2018-02-19T22:06:56.794Z,20.07
2018-02-19T22:09:25.782Z,20.20
2018-02-19T22:11:54.030Z,19.07
2018-02-19T22:14:22.960Z,20.83
2018-02-19T22:16:51.129Z,20.70
2018-02-19T22:19:19.324Z,21.00
2018-02-19T22:21:48.224Z,20.80
2018-02-19T22:24:17.184Z,21.87
2018-02-19T22:26:46.488Z,22.03
2018-02-19T22:29:14.668Z,21.77
2018-02-19T22:31:42.932Z,20.10
2018-02-19T22:34:11.138Z,20.73
2018-02-19T22:36:40.061Z,21.70
2018-02-19T22:39:08.198Z,22.67
2018-02-19T22:41:36.378Z,21.50
2018-02-19T22:44:05.311Z,20.77
2018-02-19T22:46:34.435Z,20.83
2018-02-19T22:49:02.627Z,21.97
2018-02-19T22:51:32.325Z,21.83
2018-02-19T22:54:00.488Z,23.80
2018-02-19T22:56:28.662Z,24.33
2018-02-19T22:58:56.843Z,22.67
2018-02-19T23:01:24.983Z,22.60
2018-02-19T23:03:53.108Z,23.73
2018-02-19T23:06:22.055Z,22.90
2018-02-19T23:08:50.282Z,23.17
2018-02-19T23:11:19.203Z,22.57
2018-02-19T23:13:47.339Z,24.17
2018-02-19T23:16:16.381Z,23.10
2018-02-19T23:18:44.557Z,20.00
2018-02-19T23:21:12.786Z,19.40
2018-02-19T23:23:41.681Z,20.07
2018-02-19T23:26:10.607Z,20.43
2018-02-19T23:28:38.798Z,19.63
2018-02-19T23:31:06.936Z,19.83
2018-02-19T23:33:35.927Z,21.63
2018-02-19T23:36:04.840Z,19.43
2018-02-19T23:38:32.973Z,21.50
2018-02-19T23:41:01.165Z,20.60
2018-02-19T23:43:30.064Z,22.80
2018-02-19T23:45:58.982Z,24.47
2018-02-19T23:48:27.252Z,22.57
2018-02-19T23:50:55.402Z,23.87
2018-02-19T23:53:24.360Z,22.70
2018-02-19T23:55:53.374Z,21.63
2018-02-19T23:58:22.278Z,24.70
